createdAt,value
2022-10-03T00:01:37.241Z,98946.00
2022-10-03T00:05:11.752Z,98954.00
2022-10-03T00:08:52.671Z,98964.00
2022-10-03T00:12:14.019Z,98970.00
2022-10-03T00:15:10.556Z,98971.00
2022-10-03T00:18:35.960Z,98969.00
2022-10-03T00:21:50.716Z,98975.00
2022-10-03T00:25:19.716Z,98969.00
2022-10-03T00:29:03.901Z,98979.00
2022-10-03T00:32:43.488Z,98983.00
2022-10-03T00:35:59.947Z,98982.00
2022-10-03T00:39:40.884Z,98990.00
2022-10-03T00:43:13.826Z,98987.00
2022-10-03T00:46:34.796Z,98992.00
2022-10-03T00:50:06.641Z,98980.00
2022-10-03T00:53:38.081Z,98982.00
2022-10-03T00:56:46.356Z,98990.00
2022-10-03T01:00:10.365Z,98991.00
2022-10-03T01:03:23.925Z,98992.00
2022-10-03T01:06:27.210Z,98996.00
2022-10-03T01:09:26.785Z,98994.00
2022-10-03T01:12:57.262Z,98992.00
2022-10-03T01:15:59.516Z,98992.00
2022-10-03T01:19:21.845Z,99000.00
2022-10-03T01:22:59.416Z,98994.00
2022-10-03T01:26:34.281Z,98996.00
2022-10-03T01:30:14.246Z,98995.00
2022-10-03T01:33:16.122Z,99002.00
2022-10-03T01:36:33.995Z,99003.00
2022-10-03T01:39:57.100Z,99009.00
2022-10-03T01:43:35.626Z,99018.00
2022-10-03T01:46:33.792Z,99017.00
2022-10-03T01:49:42.937Z,99011.00
2022-10-03T01:53:07.609Z,99021.00
2022-10-03T01:56:45.087Z,99026.00
2022-10-03T01:59:55.826Z,99028.00
2022-10-03T02:03:10.541Z,99027.00
2022-10-03T02:06:40.551Z,99024.00
2022-10-03T02:09:50.907Z,99024.00
2022-10-03T02:13:01.356Z,99041.00
2022-10-03T02:16:11.551Z,99035.00
2022-10-03T02:19:48.447Z,99049.00
2022-10-03T02:22:51.815Z,99042.00
2022-10-03T02:25:40.644Z,99047.00
2022-10-03T02:29:04.885Z,99051.00
2022-10-03T02:32:27.470Z,99060.00
2022-10-03T02:35:39.450Z,99062.00
2022-10-03T02:39:06.706Z,99067.00
2022-10-03T02:42:34.491Z,99054.00
2022-10-03T02:46:07.584Z,99054.00
2022-10-03T02:49:15.812Z,99057.00
2022-10-03T02:52:44.602Z,99073.00
2022-10-03T02:55:51.151Z,99071.00
2022-10-03T02:59:26.275Z,99086.00
2022-10-03T03:02:46.495Z,99083.00
2022-10-03T03:06:06.951Z,99090.00
2022-10-03T03:09:42.400Z,99090.00
2022-10-03T03:13:12.801Z,99097.00
2022-10-03T03:17:11.134Z,99104.00
2022-10-03T03:20:07.526Z,99106.00
2022-10-03T03:23:11.341Z,99107.00
2022-10-03T03:26:20.305Z,99115.00
2022-10-03T03:29:35.481Z,99114.00
2022-10-03T03:32:44.694Z,99117.00
2022-10-03T03:35:40.961Z,99123.00
2022-10-03T03:39:10.282Z,99123.00
2022-10-03T03:42:25.640Z,99124.00
2022-10-03T03:45:42.598Z,99130.00
2022-10-03T03:48:54.231Z,99121.00
2022-10-03T03:52:09.191Z,99136.00
2022-10-03T03:55:24.455Z,99128.00
2022-10-03T03:59:04.163Z,99131.00
2022-10-03T04:02:06.691Z,99131.00
2022-10-03T04:05:18.905Z,99137.00
2022-10-03T04:08:40.511Z,99129.00
2022-10-03T04:11:50.022Z,99138.00
2022-10-03T04:14:58.335Z,99136.00
2022-10-03T04:18:18.936Z,99143.00
2022-10-03T04:22:30.130Z,99139.00
2022-10-03T04:25:32.049Z,99143.00
2022-10-03T04:28:56.406Z,99144.00
2022-10-03T04:32:10.690Z,99142.00
2022-10-03T04:35:32.130Z,99148.00
2022-10-03T04:38:46.052Z,99155.00
2022-10-03T04:41:50.892Z,99156.00
2022-10-03T04:45:06.428Z,99150.00
2022-10-03T04:48:10.210Z,99159.00
2022-10-03T04:51:33.431Z,99154.00
2022-10-03T04:54:40.826Z,99152.00
2022-10-03T04:58:17.608Z,99156.00
2022-10-03T05:01:32.739Z,99154.00
2022-10-03T05:04:36.713Z,99154.00
2022-10-03T05:07:53.789Z,99162.00
2022-10-03T05:11:07.060Z,99156.00
2022-10-03T05:14:32.125Z,99168.00
2022-10-03T05:18:26.837Z,99161.00
2022-10-03T05:21:20.570Z,99158.00
2022-10-03T05:24:38.600Z,99172.00
2022-10-03T05:27:54.965Z,99177.00
2022-10-03T05:30:53.635Z,99181.00
2022-10-03T05:33:52.236Z,99184.00
2022-10-03T05:37:13.365Z,99178.00
2022-10-03T05:40:30.190Z,99190.00
2022-10-03T05:43:58.944Z,99181.00
2022-10-03T05:47:29.761Z,99197.00
2022-10-03T05:50:31.877Z,99201.00
2022-10-03T05:53:30.576Z,99200.00
2022-10-03T05:56:47.912Z,99205.00
2022-10-03T06:00:18.630Z,99201.00
2022-10-03T06:03:34.086Z,99209.00
2022-10-03T06:06:53.345Z,99209.00
2022-10-03T06:10:16.173Z,99218.00
2022-10-03T06:13:20.608Z,99215.00
2022-10-03T06:16:30.525Z,99229.00
2022-10-03T06:19:29.847Z,99223.00
2022-10-03T06:23:01.351Z,99234.00
2022-10-03T06:26:25.160Z,99235.00
2022-10-03T06:29:58.769Z,99236.00
2022-10-03T06:33:32.761Z,99244.00
2022-10-03T06:36:58.442Z,99237.00
2022-10-03T06:40:26.318Z,99243.00
2022-10-03T06:43:38.345Z,99239.00
2022-10-03T06:47:05.366Z,99236.00
2022-10-03T06:50:30.306Z,99232.00
2022-10-03T06:53:51.461Z,99247.00
2022-10-03T06:57:03.615Z,99238.00
2022-10-03T07:00:15.498Z,99242.00
2022-10-03T07:03:26.865Z,99248.00
2022-10-03T07:06:35.761Z,99253.00
2022-10-03T07:10:24.746Z,99238.00
2022-10-03T07:13:46.061Z,99242.00
2022-10-03T07:17:04.932Z,99248.00
2022-10-03T07:20:44.720Z,99255.00
2022-10-03T07:24:28.565Z,99259.00
2022-10-03T07:27:50.794Z,99274.00
2022-10-03T07:31:38.734Z,99279.00
2022-10-03T07:34:44.172Z,99276.00
2022-10-03T07:38:29.375Z,99282.00
2022-10-03T07:41:36.920Z,99289.00
2022-10-03T07:44:57.594Z,99289.00
2022-10-03T07:48:15.582Z,99300.00
2022-10-03T07:51:26.960Z,99293.00
2022-10-03T07:54:42.180Z,99297.00
2022-10-03T07:57:50.936Z,99296.00
2022-10-03T08:01:34.695Z,99293.00
2022-10-03T08:04:33.512Z,99297.00
2022-10-03T08:07:39.880Z,99293.00
2022-10-03T08:10:40.799Z,99305.00
2022-10-03T08:14:10.378Z,99308.00
2022-10-03T08:17:06.825Z,99292.00
2022-10-03T08:20:34.170Z,99308.00
2022-10-03T08:24:09.576Z,99294.00
2022-10-03T08:27:15.161Z,99306.00
2022-10-03T08:30:31.381Z,99312.00
2022-10-03T08:34:06.226Z,99296.00
2022-10-03T08:37:59.350Z,99306.00
2022-10-03T08:41:13.721Z,99307.00
2022-10-03T08:44:30.647Z,99311.00
2022-10-03T08:47:30.336Z,99310.00
2022-10-03T08:50:42.921Z,99316.00
2022-10-03T08:53:55.796Z,99316.00
2022-10-03T08:57:17.635Z,99297.00
2022-10-03T09:00:17.914Z,99310.00
2022-10-03T09:04:14.611Z,99313.00
2022-10-03T09:07:23.479Z,99306.00
2022-10-03T09:10:41.736Z,99315.00
2022-10-03T09:13:55.626Z,99312.00
2022-10-03T09:17:10.237Z,99312.00
2022-10-03T09:20:11.215Z,99307.00
2022-10-03T09:23:29.401Z,99313.00
2022-10-03T09:26:52.027Z,99315.00
2022-10-03T09:30:18.109Z,99304.00
2022-10-03T09:33:39.440Z,99306.00
2022-10-03T09:36:45.661Z,99308.00
2022-10-03T09:40:04.697Z,99312.00
2022-10-03T09:43:06.425Z,99316.00
2022-10-03T09:46:26.212Z,99315.00
2022-10-03T09:49:54.490Z,99300.00
2022-10-03T09:53:41.427Z,99318.00
2022-10-03T09:57:25.366Z,99309.00
2022-10-03T10:00:50.282Z,99308.00
2022-10-03T10:03:58.666Z,99298.00
2022-10-03T10:07:39.411Z,99304.00
2022-10-03T10:10:57.951Z,99307.00
2022-10-03T10:14:42.110Z,99309.00
2022-10-03T10:18:26.625Z,99314.00
2022-10-03T10:21:55.390Z,99326.00
2022-10-03T10:25:01.181Z,99320.00
2022-10-03T10:28:23.529Z,99333.00
2022-10-03T10:31:49.145Z,99307.00
2022-10-03T10:35:22.330Z,99310.00
2022-10-03T10:38:27.244Z,99308.00
2022-10-03T10:41:57.786Z,99299.00
2022-10-03T10:45:45.733Z,99307.00
2022-10-03T10:49:18.942Z,99304.00
2022-10-03T10:52:33.961Z,99310.00
2022-10-03T10:55:59.540Z,99297.00
2022-10-03T10:59:25.520Z,99305.00
2022-10-03T11:03:13.236Z,99306.00
2022-10-03T11:06:42.660Z,99297.00
2022-10-03T11:09:55.055Z,99306.00
2022-10-03T11:13:36.240Z,99320.00
2022-10-03T11:17:33.101Z,99305.00
2022-10-03T11:21:06.640Z,99296.00
2022-10-03T11:24:32.930Z,99293.00
2022-10-03T11:27:57.085Z,99292.00
2022-10-03T11:31:25.721Z,99305.00
2022-10-03T11:34:31.199Z,99304.00
2022-10-03T11:37:29.880Z,99309.00
2022-10-03T11:40:53.400Z,99294.00
2022-10-03T11:44:12.370Z,99289.00
2022-10-03T11:47:38.521Z,99295.00
2022-10-03T11:50:42.919Z,99306.00
2022-10-03T11:53:50.539Z,99292.00
2022-10-03T11:56:47.566Z,99292.00
2022-10-03T12:00:00.285Z,99290.00
2022-10-03T12:03:05.923Z,99289.00
2022-10-03T12:06:19.317Z,99291.00
2022-10-03T12:09:44.834Z,99280.00
2022-10-03T12:12:55.236Z,99275.00
2022-10-03T12:15:58.992Z,99280.00
2022-10-03T12:18:46.501Z,99274.00
2022-10-03T12:21:56.024Z,99270.00
2022-10-03T12:24:45.773Z,99277.00
2022-10-03T12:28:11.450Z,99271.00
2022-10-03T12:31:13.241Z,99264.00
2022-10-03T12:34:29.659Z,99272.00
2022-10-03T12:37:32.765Z,99266.00
2022-10-03T12:40:30.061Z,99271.00
2022-10-03T12:43:57.910Z,99280.00
2022-10-03T12:47:10.938Z,99285.00
2022-10-03T12:50:29.366Z,99276.00
2022-10-03T12:53:17.586Z,99277.00
2022-10-03T12:56:28.549Z,99276.00
2022-10-03T12:59:42.356Z,99274.00
2022-10-03T13:02:38.150Z,99273.00
2022-10-03T13:05:55.437Z,99281.00
2022-10-03T13:09:14.305Z,99276.00
2022-10-03T13:12:27.685Z,99274.00
2022-10-03T13:15:44.743Z,99269.00
2022-10-03T13:18:32.171Z,99273.00
2022-10-03T13:21:45.450Z,99270.00
2022-10-03T13:25:01.736Z,99277.00
2022-10-03T13:28:23.114Z,99273.00
2022-10-03T13:31:30.024Z,99283.00
2022-10-03T13:34:24.276Z,99280.00
2022-10-03T13:37:42.618Z,99279.00
2022-10-03T13:40:37.915Z,99282.00
2022-10-03T13:43:39.578Z,99286.00
2022-10-03T13:46:53.698Z,99281.00
2022-10-03T13:50:22.333Z,99288.00
2022-10-03T13:54:08.437Z,99276.00
2022-10-03T13:57:09.595Z,99279.00
2022-10-03T14:00:12.058Z,99287.00
2022-10-03T14:03:22.391Z,99290.00
2022-10-03T14:06:51.387Z,99285.00
2022-10-03T14:10:08.859Z,99284.00
2022-10-03T14:13:10.785Z,99290.00
2022-10-03T14:16:31.947Z,99295.00
2022-10-03T14:20:14.161Z,99294.00
2022-10-03T14:23:26.090Z,99295.00
2022-10-03T14:26:25.587Z,99291.00
2022-10-03T14:29:29.365Z,99283.00
2022-10-03T14:33:12.170Z,99278.00
2022-10-03T14:36:23.277Z,99289.00
2022-10-03T14:39:36.546Z,99289.00
2022-10-03T14:43:00.178Z,99282.00
2022-10-03T14:45:53.478Z,99276.00
2022-10-03T14:48:50.240Z,99284.00
2022-10-03T14:51:43.867Z,99274.00
2022-10-03T14:54:37.977Z,99281.00
2022-10-03T14:57:34.870Z,99280.00
2022-10-03T15:00:43.792Z,99275.00
2022-10-03T15:03:39.015Z,99283.00
2022-10-03T15:06:45.626Z,99279.00
2022-10-03T15:09:47.180Z,99284.00
2022-10-03T15:12:38.236Z,99285.00
2022-10-03T15:15:35.832Z,99285.00
2022-10-03T15:18:25.290Z,99288.00
2022-10-03T15:21:17.625Z,99286.00
2022-10-03T15:24:12.946Z,99282.00
2022-10-03T15:27:20.412Z,99292.00
2022-10-03T15:30:25.807Z,99282.00
2022-10-03T15:33:21.405Z,99281.00
2022-10-03T15:36:26.935Z,99284.00
2022-10-03T15:39:37.841Z,99287.00
2022-10-03T15:42:33.176Z,99285.00
2022-10-03T15:45:29.546Z,99290.00
2022-10-03T15:48:22.850Z,99298.00
2022-10-03T15:51:20.271Z,99298.00
2022-10-03T15:54:15.445Z,99297.00
2022-10-03T15:57:07.726Z,99297.00
2022-10-03T16:00:03.025Z,99309.00
2022-10-03T16:03:02.962Z,99308.00
2022-10-03T16:06:20.881Z,99306.00
2022-10-03T16:09:31.414Z,99298.00
2022-10-03T16:12:43.186Z,99298.00
2022-10-03T16:15:51.765Z,99299.00
2022-10-03T16:18:48.516Z,99313.00
2022-10-03T16:22:21.355Z,99311.00
2022-10-03T16:25:25.294Z,99312.00
2022-10-03T16:28:19.747Z,99316.00
2022-10-03T16:31:28.765Z,99312.00
2022-10-03T16:34:20.441Z,99312.00
2022-10-03T16:37:20.387Z,99308.00
2022-10-03T16:40:20.756Z,99299.00
2022-10-03T16:43:11.575Z,99293.00
2022-10-03T16:46:21.651Z,99297.00
2022-10-03T16:49:54.662Z,99300.00
2022-10-03T16:52:47.164Z,99313.00
2022-10-03T16:55:46.642Z,99312.00
2022-10-03T16:58:41.965Z,99313.00
2022-10-03T17:01:42.904Z,99318.00
2022-10-03T17:04:36.380Z,99323.00
2022-10-03T17:07:30.722Z,99318.00
2022-10-03T17:10:44.065Z,99326.00
2022-10-03T17:13:47.107Z,99323.00
2022-10-03T17:16:48.039Z,99328.00
2022-10-03T17:19:46.402Z,99329.00
2022-10-03T17:22:43.469Z,99335.00
2022-10-03T17:26:02.477Z,99327.00
2022-10-03T17:28:58.577Z,99329.00
2022-10-03T17:31:53.732Z,99326.00
2022-10-03T17:35:23.668Z,99324.00
2022-10-03T17:39:10.168Z,99327.00
2022-10-03T17:42:28.485Z,99329.00
2022-10-03T17:46:07.016Z,99335.00
2022-10-03T17:49:31.734Z,99340.00
2022-10-03T17:52:24.863Z,99344.00
2022-10-03T17:55:29.760Z,99341.00
2022-10-03T17:58:23.127Z,99337.00
2022-10-03T18:01:16.568Z,99341.00
2022-10-03T18:04:15.329Z,99339.00
2022-10-03T18:07:19.261Z,99342.00
2022-10-03T18:10:25.106Z,99342.00
2022-10-03T18:13:42.486Z,99349.00
2022-10-03T18:16:46.385Z,99341.00
2022-10-03T18:20:30.675Z,99345.00
2022-10-03T18:23:54.716Z,99336.00
2022-10-03T18:26:54.591Z,99335.00
2022-10-03T18:30:05.992Z,99330.00
2022-10-03T18:32:59.458Z,99332.00
2022-10-03T18:35:50.327Z,99331.00
2022-10-03T18:38:41.046Z,99331.00
2022-10-03T18:41:28.950Z,99333.00
2022-10-03T18:44:22.562Z,99334.00
2022-10-03T18:47:35.121Z,99335.00
2022-10-03T18:50:47.742Z,99331.00
2022-10-03T18:53:46.451Z,99340.00
2022-10-03T18:56:35.820Z,99334.00
2022-10-03T18:59:39.005Z,99340.00
2022-10-03T19:02:43.109Z,99340.00
2022-10-03T19:05:51.583Z,99341.00
2022-10-03T19:08:53.781Z,99340.00
2022-10-03T19:11:51.087Z,99344.00
2022-10-03T19:15:14.247Z,99345.00
2022-10-03T19:18:34.220Z,99338.00
2022-10-03T19:21:22.916Z,99334.00
2022-10-03T19:24:39.749Z,99331.00
2022-10-03T19:28:05.229Z,99333.00
2022-10-03T19:31:18.928Z,99329.00
2022-10-03T19:34:38.423Z,99330.00
2022-10-03T19:37:39.831Z,99334.00
2022-10-03T19:40:42.685Z,99336.00
2022-10-03T19:43:43.090Z,99332.00
2022-10-03T19:47:00.277Z,99342.00
2022-10-03T19:49:53.966Z,99338.00
2022-10-03T19:52:42.235Z,99340.00
2022-10-03T19:55:31.127Z,99340.00
2022-10-03T19:58:24.555Z,99344.00
2022-10-03T20:01:12.767Z,99343.00
2022-10-03T20:04:01.606Z,99342.00
2022-10-03T20:06:53.696Z,99342.00
2022-10-03T20:09:58.410Z,99341.00
2022-10-03T20:12:52.466Z,99343.00
2022-10-03T20:15:51.963Z,99339.00
2022-10-03T20:18:39.865Z,99345.00
2022-10-03T20:21:30.485Z,99341.00
2022-10-03T20:24:32.327Z,99344.00
2022-10-03T20:27:51.725Z,99341.00
2022-10-03T20:30:51.330Z,99338.00
2022-10-03T20:33:39.105Z,99338.00
2022-10-03T20:36:29.990Z,99342.00
2022-10-03T20:39:28.011Z,99343.00
2022-10-03T20:42:31.002Z,99345.00
2022-10-03T20:45:27.536Z,99340.00
2022-10-03T20:48:29.875Z,99330.00
2022-10-03T20:51:36.657Z,99330.00
2022-10-03T20:54:48.095Z,99333.00
2022-10-03T20:58:13.750Z,99326.00
2022-10-03T21:01:31.663Z,99333.00
2022-10-03T21:04:33.196Z,99316.00
2022-10-03T21:07:42.642Z,99326.00
2022-10-03T21:10:37.726Z,99327.00
2022-10-03T21:13:39.335Z,99323.00
2022-10-03T21:16:38.796Z,99324.00
2022-10-03T21:19:32.160Z,99321.00
2022-10-03T21:22:26.895Z,99314.00
2022-10-03T21:25:36.854Z,99313.00
2022-10-03T21:28:37.052Z,99316.00
2022-10-03T21:32:05.737Z,99315.00
2022-10-03T21:35:27.259Z,99320.00
2022-10-03T21:38:24.651Z,99330.00
2022-10-03T21:41:48.041Z,99315.00
2022-10-03T21:45:17.500Z,99314.00
2022-10-03T21:48:23.460Z,99325.00
2022-10-03T21:51:40.895Z,99320.00
2022-10-03T21:54:49.750Z,99315.00
2022-10-03T21:58:08.791Z,99318.00
2022-10-03T22:01:15.355Z,99309.00
2022-10-03T22:04:23.480Z,99306.00
2022-10-03T22:07:37.774Z,99304.00
2022-10-03T22:10:36.359Z,99308.00
2022-10-03T22:13:29.785Z,99296.00
2022-10-03T22:16:39.035Z,99297.00
2022-10-03T22:19:43.300Z,99306.00
2022-10-03T22:23:08.214Z,99311.00
2022-10-03T22:26:38.099Z,99304.00
2022-10-03T22:29:39.532Z,99294.00
2022-10-03T22:33:00.848Z,99294.00
2022-10-03T22:36:01.417Z,99292.00
2022-10-03T22:38:52.516Z,99290.00
2022-10-03T22:41:45.901Z,99287.00
2022-10-03T22:44:40.810Z,99283.00
2022-10-03T22:47:33.459Z,99272.00
2022-10-03T22:50:29.367Z,99274.00
2022-10-03T22:53:23.861Z,99277.00
2022-10-03T22:56:35.104Z,99279.00
2022-10-03T22:59:42.445Z,99274.00
2022-10-03T23:02:40.533Z,99271.00
2022-10-03T23:06:24.768Z,99265.00
2022-10-03T23:09:36.145Z,99272.00
2022-10-03T23:12:29.186Z,99271.00
2022-10-03T23:15:22.677Z,99269.00
2022-10-03T23:18:39.397Z,99262.00
2022-10-03T23:21:27.486Z,99259.00
2022-10-03T23:24:27.782Z,99265.00
2022-10-03T23:27:42.517Z,99262.00
2022-10-03T23:30:29.991Z,99268.00
2022-10-03T23:33:38.565Z,99255.00
2022-10-03T23:36:26.125Z,99260.00
2022-10-03T23:39:34.032Z,99265.00
2022-10-03T23:42:33.167Z,99270.00
2022-10-03T23:45:23.610Z,99268.00
2022-10-03T23:48:16.960Z,99277.00
2022-10-03T23:51:08.291Z,99271.00
2022-10-03T23:54:04.075Z,99262.00
2022-10-03T23:56:51.666Z,99254.00
2022-10-03T23:59:39.815Z,99254.00
